sensor_id;sensor_type;location;lat;lon;timestamp;P1;durP1;ratioP1;P2;durP2;ratioP2
2225;SDS011;1119;48.288;8.726;2023-05-18T00:01:56;7.03;;;6.33;;
2225;SDS011;1119;48.288;8.726;2023-05-18T00:04:44;5.70;;;5.20;;
2225;SDS011;1119;48.288;8.726;2023-05-18T00:07:32;5.03;;;4.63;;
2225;SDS011;1119;48.288;8.726;2023-05-18T00:10:19;12.77;;;5.83;;
2225;SDS011;1119;48.288;8.726;2023-05-18T00:13:07;4.83;;;4.43;;
2225;SDS011;1119;48.288;8.726;2023-05-18T00:15:56;13.97;;;4.80;;
2225;SDS011;1119;48.288;8.726;2023-05-18T00:18:43;12.93;;;6.50;;
2225;SDS011;1119;48.288;8.726;2023-05-18T00:21:32;5.77;;;5.30;;
2225;SDS011;1119;48.288;8.726;2023-05-18T00:24:20;6.70;;;5.20;;
2225;SDS011;1119;48.288;8.726;2023-05-18T00:27:08;5.77;;;5.27;;
2225;SDS011;1119;48.288;8.726;2023-05-18T00:29:56;6.07;;;5.30;;
2225;SDS011;1119;48.288;8.726;2023-05-18T00:32:45;8.43;;;5.23;;
2225;SDS011;1119;48.288;8.726;2023-05-18T00:35:32;6.97;;;5.50;;
2225;SDS011;1119;48.288;8.726;2023-05-18T00:38:20;6.27;;;5.07;;
2225;SDS011;1119;48.288;8.726;2023-05-18T00:41:07;5.80;;;5.30;;
2225;SDS011;1119;48.288;8.726;2023-05-18T00:43:55;6.50;;;6.03;;
2225;SDS011;1119;48.288;8.726;2023-05-18T00:46:43;5.10;;;4.70;;
2225;SDS011;1119;48.288;8.726;2023-05-18T00:49:32;6.67;;;5.70;;
2225;SDS011;1119;48.288;8.726;2023-05-18T00:52:20;6.00;;;5.00;;
2225;SDS011;1119;48.288;8.726;2023-05-18T00:55:08;5.37;;;5.07;;
2225;SDS011;1119;48.288;8.726;2023-05-18T00:57:59;6.87;;;6.17;;
2225;SDS011;1119;48.288;8.726;2023-05-18T01:00:47;6.53;;;5.93;;
2225;SDS011;1119;48.288;8.726;2023-05-18T01:03:35;6.50;;;5.30;;
2225;SDS011;1119;48.288;8.726;2023-05-18T01:06:25;7.07;;;6.37;;
2225;SDS011;1119;48.288;8.726;2023-05-18T01:09:12;6.53;;;5.93;;
2225;SDS011;1119;48.288;8.726;2023-05-18T01:12:02;6.37;;;5.47;;
2225;SDS011;1119;48.288;8.726;2023-05-18T01:14:58;5.60;;;5.10;;
2225;SDS011;1119;48.288;8.726;2023-05-18T01:17:58;7.40;;;5.67;;
2225;SDS011;1119;48.288;8.726;2023-05-18T01:20:56;7.90;;;5.47;;
2225;SDS011;1119;48.288;8.726;2023-05-18T01:23:52;7.90;;;6.20;;
2225;SDS011;1119;48.288;8.726;2023-05-18T01:26:52;8.20;;;4.70;;
2225;SDS011;1119;48.288;8.726;2023-05-18T01:29:43;7.50;;;6.33;;
2225;SDS011;1119;48.288;8.726;2023-05-18T01:32:37;13.80;;;5.67;;
2225;SDS011;1119;48.288;8.726;2023-05-18T01:35:27;6.43;;;5.70;;
2225;SDS011;1119;48.288;8.726;2023-05-18T01:38:17;6.43;;;5.93;;
2225;SDS011;1119;48.288;8.726;2023-05-18T01:41:09;6.50;;;6.00;;
2225;SDS011;1119;48.288;8.726;2023-05-18T01:44:05;12.43;;;6.00;;
2225;SDS011;1119;48.288;8.726;2023-05-18T01:47:01;7.17;;;5.80;;
2225;SDS011;1119;48.288;8.726;2023-05-18T01:49:57;5.67;;;5.10;;
2225;SDS011;1119;48.288;8.726;2023-05-18T01:52:50;8.20;;;6.00;;
2225;SDS011;1119;48.288;8.726;2023-05-18T01:55:44;6.27;;;5.40;;
2225;SDS011;1119;48.288;8.726;2023-05-18T01:58:34;5.77;;;5.17;;
2225;SDS011;1119;48.288;8.726;2023-05-18T02:01:24;7.10;;;6.40;;
2225;SDS011;1119;48.288;8.726;2023-05-18T02:04:12;6.37;;;5.70;;
2225;SDS011;1119;48.288;8.726;2023-05-18T02:07:00;6.60;;;5.10;;
2225;SDS011;1119;48.288;8.726;2023-05-18T02:09:49;6.60;;;6.00;;
2225;SDS011;1119;48.288;8.726;2023-05-18T02:12:36;7.60;;;5.70;;
2225;SDS011;1119;48.288;8.726;2023-05-18T02:15:24;6.77;;;6.00;;
2225;SDS011;1119;48.288;8.726;2023-05-18T02:18:13;5.27;;;4.87;;
2225;SDS011;1119;48.288;8.726;2023-05-18T02:21:01;5.87;;;5.27;;
2225;SDS011;1119;48.288;8.726;2023-05-18T02:23:50;7.57;;;6.03;;
2225;SDS011;1119;48.288;8.726;2023-05-18T02:26:38;6.43;;;5.87;;
2225;SDS011;1119;48.288;8.726;2023-05-18T02:29:26;6.30;;;4.97;;
2225;SDS011;1119;48.288;8.726;2023-05-18T02:32:14;6.13;;;5.10;;
2225;SDS011;1119;48.288;8.726;2023-05-18T02:35:06;8.47;;;5.97;;
2225;SDS011;1119;48.288;8.726;2023-05-18T02:37:55;6.00;;;5.60;;
2225;SDS011;1119;48.288;8.726;2023-05-18T02:40:43;6.93;;;6.27;;
2225;SDS011;1119;48.288;8.726;2023-05-18T02:43:31;7.97;;;7.20;;
2225;SDS011;1119;48.288;8.726;2023-05-18T02:46:19;5.97;;;5.43;;
2225;SDS011;1119;48.288;8.726;2023-05-18T02:49:07;7.77;;;6.13;;
2225;SDS011;1119;48.288;8.726;2023-05-18T02:51:57;8.43;;;6.13;;
2225;SDS011;1119;48.288;8.726;2023-05-18T02:54:44;6.53;;;5.93;;
2225;SDS011;1119;48.288;8.726;2023-05-18T02:57:37;6.37;;;5.80;;
2225;SDS011;1119;48.288;8.726;2023-05-18T03:00:28;9.63;;;5.97;;
2225;SDS011;1119;48.288;8.726;2023-05-18T03:03:16;7.90;;;5.73;;
2225;SDS011;1119;48.288;8.726;2023-05-18T03:06:05;6.13;;;5.40;;
2225;SDS011;1119;48.288;8.726;2023-05-18T03:08:55;6.43;;;5.90;;
2225;SDS011;1119;48.288;8.726;2023-05-18T03:11:58;7.23;;;6.07;;
2225;SDS011;1119;48.288;8.726;2023-05-18T03:14:46;6.77;;;6.17;;
2225;SDS011;1119;48.288;8.726;2023-05-18T03:17:33;5.87;;;5.33;;
2225;SDS011;1119;48.288;8.726;2023-05-18T03:20:21;6.83;;;6.23;;
2225;SDS011;1119;48.288;8.726;2023-05-18T03:23:10;7.57;;;6.87;;
2225;SDS011;1119;48.288;8.726;2023-05-18T03:26:01;7.13;;;6.47;;
2225;SDS011;1119;48.288;8.726;2023-05-18T03:28:55;9.77;;;6.43;;
2225;SDS011;1119;48.288;8.726;2023-05-18T03:31:43;8.60;;;7.40;;
2225;SDS011;1119;48.288;8.726;2023-05-18T03:34:32;11.70;;;6.53;;
2225;SDS011;1119;48.288;8.726;2023-05-18T03:37:20;7.30;;;6.30;;
2225;SDS011;1119;48.288;8.726;2023-05-18T03:40:08;7.90;;;7.20;;
2225;SDS011;1119;48.288;8.726;2023-05-18T03:43:01;10.73;;;6.53;;
2225;SDS011;1119;48.288;8.726;2023-05-18T03:45:52;9.40;;;6.43;;
2225;SDS011;1119;48.288;8.726;2023-05-18T03:48:39;7.50;;;6.90;;
2225;SDS011;1119;48.288;8.726;2023-05-18T03:51:27;6.43;;;5.80;;
2225;SDS011;1119;48.288;8.726;2023-05-18T03:54:15;9.07;;;8.23;;
2225;SDS011;1119;48.288;8.726;2023-05-18T03:57:05;7.87;;;6.93;;
2225;SDS011;1119;48.288;8.726;2023-05-18T03:59:54;7.83;;;7.10;;
2225;SDS011;1119;48.288;8.726;2023-05-18T04:02:42;8.20;;;5.60;;
2225;SDS011;1119;48.288;8.726;2023-05-18T04:05:34;8.47;;;5.83;;
2225;SDS011;1119;48.288;8.726;2023-05-18T04:08:21;7.00;;;6.30;;
2225;SDS011;1119;48.288;8.726;2023-05-18T04:11:11;7.63;;;7.03;;
2225;SDS011;1119;48.288;8.726;2023-05-18T04:13:59;6.27;;;5.50;;
2225;SDS011;1119;48.288;8.726;2023-05-18T04:16:48;7.57;;;6.87;;
2225;SDS011;1119;48.288;8.726;2023-05-18T04:19:37;9.40;;;6.83;;
2225;SDS011;1119;48.288;8.726;2023-05-18T04:22:24;7.90;;;5.77;;
2225;SDS011;1119;48.288;8.726;2023-05-18T04:25:15;10.60;;;7.27;;
2225;SDS011;1119;48.288;8.726;2023-05-18T04:28:07;9.23;;;7.40;;
2225;SDS011;1119;48.288;8.726;2023-05-18T04:30:55;7.83;;;6.73;;
2225;SDS011;1119;48.288;8.726;2023-05-18T04:33:44;7.77;;;6.23;;
2225;SDS011;1119;48.288;8.726;2023-05-18T04:36:32;7.23;;;6.53;;
2225;SDS011;1119;48.288;8.726;2023-05-18T04:39:20;6.33;;;5.50;;
2225;SDS011;1119;48.288;8.726;2023-05-18T04:42:09;7.87;;;7.07;;
2225;SDS011;1119;48.288;8.726;2023-05-18T04:44:59;8.07;;;7.00;;
2225;SDS011;1119;48.288;8.726;2023-05-18T04:47:50;9.43;;;6.20;;
2225;SDS011;1119;48.288;8.726;2023-05-18T04:50:41;7.73;;;7.13;;
2225;SDS011;1119;48.288;8.726;2023-05-18T04:53:28;7.90;;;7.30;;
2225;SDS011;1119;48.288;8.726;2023-05-18T04:56:18;11.37;;;8.10;;
2225;SDS011;1119;48.288;8.726;2023-05-18T04:59:07;7.47;;;6.77;;
2225;SDS011;1119;48.288;8.726;2023-05-18T05:01:55;8.80;;;6.70;;
2225;SDS011;1119;48.288;8.726;2023-05-18T05:04:44;7.20;;;6.50;;
2225;SDS011;1119;48.288;8.726;2023-05-18T05:07:33;8.13;;;6.53;;
2225;SDS011;1119;48.288;8.726;2023-05-18T05:10:21;8.87;;;7.97;;
2225;SDS011;1119;48.288;8.726;2023-05-18T05:13:09;11.00;;;7.67;;
2225;SDS011;1119;48.288;8.726;2023-05-18T05:15:57;13.93;;;7.73;;
2225;SDS011;1119;48.288;8.726;2023-05-18T05:18:44;12.60;;;9.00;;
2225;SDS011;1119;48.288;8.726;2023-05-18T05:21:32;7.77;;;6.23;;
2225;SDS011;1119;48.288;8.726;2023-05-18T05:24:23;9.40;;;8.47;;
2225;SDS011;1119;48.288;8.726;2023-05-18T05:27:10;13.80;;;7.83;;
2225;SDS011;1119;48.288;8.726;2023-05-18T05:29:58;8.47;;;7.40;;
2225;SDS011;1119;48.288;8.726;2023-05-18T05:32:46;9.43;;;7.50;;
2225;SDS011;1119;48.288;8.726;2023-05-18T05:35:34;13.33;;;7.70;;
2225;SDS011;1119;48.288;8.726;2023-05-18T05:38:22;10.00;;;6.40;;
2225;SDS011;1119;48.288;8.726;2023-05-18T05:41:12;6.50;;;6.00;;
2225;SDS011;1119;48.288;8.726;2023-05-18T05:44:00;8.27;;;5.93;;
2225;SDS011;1119;48.288;8.726;2023-05-18T05:46:48;8.00;;;7.30;;
2225;SDS011;1119;48.288;8.726;2023-05-18T05:49:36;7.40;;;5.77;;
2225;SDS011;1119;48.288;8.726;2023-05-18T05:52:25;9.30;;;7.17;;
2225;SDS011;1119;48.288;8.726;2023-05-18T05:55:13;9.80;;;8.57;;
2225;SDS011;1119;48.288;8.726;2023-05-18T05:58:02;8.50;;;6.60;;
2225;SDS011;1119;48.288;8.726;2023-05-18T06:00:51;13.20;;;7.27;;
2225;SDS011;1119;48.288;8.726;2023-05-18T06:03:39;7.83;;;5.67;;
2225;SDS011;1119;48.288;8.726;2023-05-18T06:06:28;7.60;;;6.80;;
2225;SDS011;1119;48.288;8.726;2023-05-18T06:09:16;6.67;;;6.03;;
2225;SDS011;1119;48.288;8.726;2023-05-18T06:12:04;8.27;;;6.83;;
2225;SDS011;1119;48.288;8.726;2023-05-18T06:14:54;6.40;;;5.20;;
2225;SDS011;1119;48.288;8.726;2023-05-18T06:17:43;4.97;;;4.60;;
2225;SDS011;1119;48.288;8.726;2023-05-18T06:20:31;8.23;;;6.27;;
2225;SDS011;1119;48.288;8.726;2023-05-18T06:23:19;6.17;;;5.77;;
2225;SDS011;1119;48.288;8.726;2023-05-18T06:26:20;9.10;;;5.80;;
2225;SDS011;1119;48.288;8.726;2023-05-18T06:29:14;7.50;;;5.50;;
2225;SDS011;1119;48.288;8.726;2023-05-18T06:32:23;6.23;;;5.70;;
2225;SDS011;1119;48.288;8.726;2023-05-18T06:35:13;7.13;;;6.70;;
2225;SDS011;1119;48.288;8.726;2023-05-18T06:38:01;5.77;;;5.30;;
2225;SDS011;1119;48.288;8.726;2023-05-18T06:40:49;7.00;;;6.40;;
2225;SDS011;1119;48.288;8.726;2023-05-18T06:43:37;6.33;;;5.87;;
2225;SDS011;1119;48.288;8.726;2023-05-18T06:46:41;8.20;;;6.27;;
2225;SDS011;1119;48.288;8.726;2023-05-18T06:49:40;6.20;;;5.70;;
2225;SDS011;1119;48.288;8.726;2023-05-18T06:52:28;7.90;;;5.43;;
2225;SDS011;1119;48.288;8.726;2023-05-18T06:55:16;5.53;;;5.03;;
2225;SDS011;1119;48.288;8.726;2023-05-18T06:58:04;5.83;;;5.33;;
2225;SDS011;1119;48.288;8.726;2023-05-18T07:00:52;7.10;;;6.23;;
2225;SDS011;1119;48.288;8.726;2023-05-18T07:03:40;8.40;;;6.20;;
2225;SDS011;1119;48.288;8.726;2023-05-18T07:06:29;6.63;;;5.90;;
2225;SDS011;1119;48.288;8.726;2023-05-18T07:09:17;6.80;;;6.37;;
2225;SDS011;1119;48.288;8.726;2023-05-18T07:12:05;7.03;;;6.43;;
2225;SDS011;1119;48.288;8.726;2023-05-18T07:14:55;7.93;;;5.77;;
2225;SDS011;1119;48.288;8.726;2023-05-18T07:17:43;5.20;;;4.80;;
2225;SDS011;1119;48.288;8.726;2023-05-18T07:20:31;7.23;;;6.03;;
2225;SDS011;1119;48.288;8.726;2023-05-18T07:23:22;6.07;;;5.60;;
2225;SDS011;1119;48.288;8.726;2023-05-18T07:26:09;5.23;;;4.93;;
2225;SDS011;1119;48.288;8.726;2023-05-18T07:28:57;5.23;;;4.73;;
2225;SDS011;1119;48.288;8.726;2023-05-18T07:31:45;5.90;;;5.23;;
2225;SDS011;1119;48.288;8.726;2023-05-18T07:34:32;7.13;;;6.40;;
2225;SDS011;1119;48.288;8.726;2023-05-18T07:37:20;6.10;;;5.60;;
2225;SDS011;1119;48.288;8.726;2023-05-18T07:40:10;7.87;;;4.30;;
2225;SDS011;1119;48.288;8.726;2023-05-18T07:42:58;6.00;;;5.50;;
2225;SDS011;1119;48.288;8.726;2023-05-18T07:45:46;7.60;;;5.63;;
2225;SDS011;1119;48.288;8.726;2023-05-18T07:48:33;6.33;;;5.80;;
2225;SDS011;1119;48.288;8.726;2023-05-18T07:51:21;6.23;;;5.73;;
2225;SDS011;1119;48.288;8.726;2023-05-18T07:54:09;4.87;;;4.57;;
2225;SDS011;1119;48.288;8.726;2023-05-18T07:56:58;9.63;;;6.10;;
2225;SDS011;1119;48.288;8.726;2023-05-18T07:59:46;8.23;;;5.87;;
2225;SDS011;1119;48.288;8.726;2023-05-18T08:02:33;7.17;;;5.83;;
2225;SDS011;1119;48.288;8.726;2023-05-18T08:05:22;5.50;;;5.10;;
2225;SDS011;1119;48.288;8.726;2023-05-18T08:08:09;7.13;;;4.87;;
2225;SDS011;1119;48.288;8.726;2023-05-18T08:10:59;8.27;;;5.40;;
2225;SDS011;1119;48.288;8.726;2023-05-18T08:13:48;4.97;;;4.57;;
2225;SDS011;1119;48.288;8.726;2023-05-18T08:16:36;9.90;;;7.80;;
2225;SDS011;1119;48.288;8.726;2023-05-18T08:19:24;4.53;;;4.23;;
2225;SDS011;1119;48.288;8.726;2023-05-18T08:22:12;6.50;;;6.00;;
2225;SDS011;1119;48.288;8.726;2023-05-18T08:24:59;8.83;;;5.73;;
2225;SDS011;1119;48.288;8.726;2023-05-18T08:27:47;5.47;;;5.07;;
2225;SDS011;1119;48.288;8.726;2023-05-18T08:30:37;6.23;;;5.63;;
2225;SDS011;1119;48.288;8.726;2023-05-18T08:33:24;6.03;;;5.63;;
2225;SDS011;1119;48.288;8.726;2023-05-18T08:36:12;5.40;;;4.90;;
2225;SDS011;1119;48.288;8.726;2023-05-18T08:39:00;7.40;;;6.47;;
2225;SDS011;1119;48.288;8.726;2023-05-18T08:41:49;7.77;;;6.30;;
2225;SDS011;1119;48.288;8.726;2023-05-18T08:44:44;5.90;;;5.40;;
2225;SDS011;1119;48.288;8.726;2023-05-18T08:47:38;6.33;;;5.70;;
2225;SDS011;1119;48.288;8.726;2023-05-18T08:50:26;11.67;;;5.80;;
2225;SDS011;1119;48.288;8.726;2023-05-18T08:53:18;6.43;;;5.93;;
2225;SDS011;1119;48.288;8.726;2023-05-18T08:56:09;6.43;;;5.93;;
2225;SDS011;1119;48.288;8.726;2023-05-18T08:58:58;7.13;;;6.47;;
2225;SDS011;1119;48.288;8.726;2023-05-18T09:01:52;6.03;;;5.53;;
2225;SDS011;1119;48.288;8.726;2023-05-18T09:04:41;7.50;;;6.27;;
2225;SDS011;1119;48.288;8.726;2023-05-18T09:07:29;8.13;;;6.10;;
2225;SDS011;1119;48.288;8.726;2023-05-18T09:10:18;5.77;;;5.30;;
2225;SDS011;1119;48.288;8.726;2023-05-18T09:13:05;5.70;;;5.30;;
2225;SDS011;1119;48.288;8.726;2023-05-18T09:15:58;9.40;;;7.07;;
2225;SDS011;1119;48.288;8.726;2023-05-18T09:18:46;5.87;;;5.37;;
2225;SDS011;1119;48.288;8.726;2023-05-18T09:21:36;6.70;;;6.20;;
2225;SDS011;1119;48.288;8.726;2023-05-18T09:24:23;6.20;;;5.70;;
2225;SDS011;1119;48.288;8.726;2023-05-18T09:27:11;8.43;;;6.30;;
2225;SDS011;1119;48.288;8.726;2023-05-18T09:29:59;6.00;;;5.40;;
2225;SDS011;1119;48.288;8.726;2023-05-18T09:32:47;7.63;;;4.93;;
2225;SDS011;1119;48.288;8.726;2023-05-18T09:35:34;6.27;;;5.50;;
2225;SDS011;1119;48.288;8.726;2023-05-18T09:38:27;5.73;;;5.10;;
2225;SDS011;1119;48.288;8.726;2023-05-18T09:41:15;7.00;;;5.33;;
2225;SDS011;1119;48.288;8.726;2023-05-18T09:44:03;10.00;;;6.30;;
2225;SDS011;1119;48.288;8.726;2023-05-18T09:46:54;6.60;;;6.10;;
2225;SDS011;1119;48.288;8.726;2023-05-18T09:49:42;7.03;;;6.53;;
2225;SDS011;1119;48.288;8.726;2023-05-18T09:52:29;5.60;;;5.20;;
2225;SDS011;1119;48.288;8.726;2023-05-18T09:55:18;7.30;;;6.70;;
2225;SDS011;1119;48.288;8.726;2023-05-18T09:58:06;5.50;;;5.00;;
2225;SDS011;1119;48.288;8.726;2023-05-18T10:00:55;5.47;;;5.17;;
2225;SDS011;1119;48.288;8.726;2023-05-18T10:03:52;6.30;;;5.87;;
2225;SDS011;1119;48.288;8.726;2023-05-18T10:06:51;5.13;;;4.80;;
2225;SDS011;1119;48.288;8.726;2023-05-18T10:09:39;6.70;;;5.80;;
2225;SDS011;1119;48.288;8.726;2023-05-18T10:12:29;7.00;;;6.13;;
2225;SDS011;1119;48.288;8.726;2023-05-18T10:15:17;5.77;;;5.30;;
2225;SDS011;1119;48.288;8.726;2023-05-18T10:18:07;10.17;;;6.40;;
2225;SDS011;1119;48.288;8.726;2023-05-18T10:20:55;7.33;;;6.07;;
2225;SDS011;1119;48.288;8.726;2023-05-18T10:23:46;5.50;;;5.00;;
2225;SDS011;1119;48.288;8.726;2023-05-18T10:26:36;9.03;;;4.90;;
2225;SDS011;1119;48.288;8.726;2023-05-18T10:29:31;8.57;;;5.63;;
2225;SDS011;1119;48.288;8.726;2023-05-18T10:32:20;6.87;;;6.03;;
2225;SDS011;1119;48.288;8.726;2023-05-18T10:35:11;4.30;;;4.00;;
2225;SDS011;1119;48.288;8.726;2023-05-18T10:38:00;6.10;;;5.67;;
2225;SDS011;1119;48.288;8.726;2023-05-18T10:40:50;6.97;;;6.20;;
2225;SDS011;1119;48.288;8.726;2023-05-18T10:43:40;7.33;;;5.57;;
2225;SDS011;1119;48.288;8.726;2023-05-18T10:46:31;6.53;;;5.70;;
2225;SDS011;1119;48.288;8.726;2023-05-18T10:49:20;6.50;;;5.90;;
2225;SDS011;1119;48.288;8.726;2023-05-18T10:52:09;6.77;;;6.17;;
2225;SDS011;1119;48.288;8.726;2023-05-18T10:54:58;5.53;;;4.93;;
2225;SDS011;1119;48.288;8.726;2023-05-18T10:57:47;4.90;;;4.57;;
2225;SDS011;1119;48.288;8.726;2023-05-18T11:00:39;5.47;;;5.07;;
2225;SDS011;1119;48.288;8.726;2023-05-18T11:04:01;5.63;;;5.30;;
2225;SDS011;1119;48.288;8.726;2023-05-18T11:06:53;5.47;;;4.97;;
2225;SDS011;1119;48.288;8.726;2023-05-18T11:14:36;6.13;;;5.47;;
2225;SDS011;1119;48.288;8.726;2023-05-18T11:18:11;5.70;;;5.10;;
2225;SDS011;1119;48.288;8.726;2023-05-18T11:21:00;4.50;;;4.30;;
2225;SDS011;1119;48.288;8.726;2023-05-18T11:27:07;8.00;;;5.27;;
2225;SDS011;1119;48.288;8.726;2023-05-18T11:30:06;5.50;;;5.10;;
2225;SDS011;1119;48.288;8.726;2023-05-18T11:33:16;6.03;;;5.53;;
2225;SDS011;1119;48.288;8.726;2023-05-18T11:36:14;6.70;;;6.20;;
2225;SDS011;1119;48.288;8.726;2023-05-18T11:39:10;7.57;;;5.73;;
2225;SDS011;1119;48.288;8.726;2023-05-18T11:42:10;5.83;;;4.53;;
2225;SDS011;1119;48.288;8.726;2023-05-18T11:45:04;6.10;;;4.67;;
2225;SDS011;1119;48.288;8.726;2023-05-18T11:47:55;4.27;;;3.97;;
2225;SDS011;1119;48.288;8.726;2023-05-18T11:50:47;6.73;;;4.67;;
2225;SDS011;1119;48.288;8.726;2023-05-18T11:53:37;9.83;;;4.77;;
2225;SDS011;1119;48.288;8.726;2023-05-18T11:56:29;4.63;;;4.33;;
2225;SDS011;1119;48.288;8.726;2023-05-18T11:59:28;8.33;;;5.50;;
2225;SDS011;1119;48.288;8.726;2023-05-18T12:02:19;4.50;;;4.30;;
2225;SDS011;1119;48.288;8.726;2023-05-18T12:05:08;5.27;;;4.77;;
2225;SDS011;1119;48.288;8.726;2023-05-18T12:07:56;4.23;;;4.03;;
2225;SDS011;1119;48.288;8.726;2023-05-18T12:10:47;4.93;;;4.63;;
2225;SDS011;1119;48.288;8.726;2023-05-18T12:13:35;4.47;;;4.17;;
2225;SDS011;1119;48.288;8.726;2023-05-18T12:16:22;4.77;;;4.33;;
2225;SDS011;1119;48.288;8.726;2023-05-18T12:19:13;5.77;;;4.83;;
2225;SDS011;1119;48.288;8.726;2023-05-18T12:22:01;5.07;;;4.77;;
2225;SDS011;1119;48.288;8.726;2023-05-18T12:24:50;5.50;;;5.17;;
2225;SDS011;1119;48.288;8.726;2023-05-18T12:27:40;5.70;;;5.30;;
2225;SDS011;1119;48.288;8.726;2023-05-18T12:30:29;5.63;;;5.23;;
2225;SDS011;1119;48.288;8.726;2023-05-18T12:33:20;4.00;;;3.70;;
2225;SDS011;1119;48.288;8.726;2023-05-18T12:36:08;3.93;;;3.73;;
2225;SDS011;1119;48.288;8.726;2023-05-18T12:38:57;4.60;;;4.13;;
2225;SDS011;1119;48.288;8.726;2023-05-18T12:41:47;3.90;;;3.70;;
2225;SDS011;1119;48.288;8.726;2023-05-18T12:44:37;4.50;;;4.30;;
2225;SDS011;1119;48.288;8.726;2023-05-18T12:47:25;5.20;;;4.80;;
2225;SDS011;1119;48.288;8.726;2023-05-18T12:50:15;5.27;;;4.77;;
2225;SDS011;1119;48.288;8.726;2023-05-18T12:53:03;4.50;;;4.10;;
2225;SDS011;1119;48.288;8.726;2023-05-18T12:55:57;6.30;;;5.70;;
2225;SDS011;1119;48.288;8.726;2023-05-18T12:58:55;4.40;;;4.10;;
2225;SDS011;1119;48.288;8.726;2023-05-18T13:01:46;5.30;;;4.80;;
2225;SDS011;1119;48.288;8.726;2023-05-18T13:04:34;6.23;;;5.03;;
2225;SDS011;1119;48.288;8.726;2023-05-18T13:07:21;8.13;;;4.20;;
2225;SDS011;1119;48.288;8.726;2023-05-18T13:10:15;13.63;;;4.43;;
2225;SDS011;1119;48.288;8.726;2023-05-18T13:13:04;5.17;;;4.77;;
2225;SDS011;1119;48.288;8.726;2023-05-18T13:15:52;6.40;;;5.07;;
2225;SDS011;1119;48.288;8.726;2023-05-18T13:18:44;5.67;;;5.20;;
2225;SDS011;1119;48.288;8.726;2023-05-18T13:21:32;5.40;;;4.90;;
2225;SDS011;1119;48.288;8.726;2023-05-18T13:24:20;6.57;;;4.87;;
2225;SDS011;1119;48.288;8.726;2023-05-18T13:27:07;4.40;;;4.00;;
2225;SDS011;1119;48.288;8.726;2023-05-18T13:29:55;5.90;;;4.70;;
2225;SDS011;1119;48.288;8.726;2023-05-18T13:32:44;3.70;;;3.50;;
2225;SDS011;1119;48.288;8.726;2023-05-18T13:35:33;5.20;;;3.97;;
2225;SDS011;1119;48.288;8.726;2023-05-18T13:38:21;4.57;;;4.27;;
2225;SDS011;1119;48.288;8.726;2023-05-18T13:41:09;4.37;;;4.17;;
2225;SDS011;1119;48.288;8.726;2023-05-18T13:44:00;4.00;;;3.80;;
2225;SDS011;1119;48.288;8.726;2023-05-18T13:46:48;5.60;;;4.90;;
2225;SDS011;1119;48.288;8.726;2023-05-18T13:49:36;4.70;;;4.30;;
2225;SDS011;1119;48.288;8.726;2023-05-18T13:52:24;4.03;;;3.67;;
2225;SDS011;1119;48.288;8.726;2023-05-18T13:55:12;4.47;;;3.43;;
2225;SDS011;1119;48.288;8.726;2023-05-18T13:58:00;6.17;;;4.30;;
2225;SDS011;1119;48.288;8.726;2023-05-18T14:00:47;6.30;;;5.80;;
2225;SDS011;1119;48.288;8.726;2023-05-18T14:03:35;7.10;;;4.57;;
2225;SDS011;1119;48.288;8.726;2023-05-18T14:06:25;6.00;;;4.60;;
2225;SDS011;1119;48.288;8.726;2023-05-18T14:09:14;4.80;;;4.40;;
2225;SDS011;1119;48.288;8.726;2023-05-18T14:12:01;6.47;;;4.87;;
2225;SDS011;1119;48.288;8.726;2023-05-18T14:14:50;5.33;;;4.90;;
2225;SDS011;1119;48.288;8.726;2023-05-18T14:17:37;3.83;;;3.50;;
2225;SDS011;1119;48.288;8.726;2023-05-18T14:20:25;5.03;;;3.90;;
2225;SDS011;1119;48.288;8.726;2023-05-18T14:23:13;4.47;;;4.10;;
2225;SDS011;1119;48.288;8.726;2023-05-18T14:26:02;5.20;;;4.20;;
2225;SDS011;1119;48.288;8.726;2023-05-18T14:33:27;4.03;;;3.70;;
2225;SDS011;1119;48.288;8.726;2023-05-18T14:36:14;4.37;;;4.10;;
2225;SDS011;1119;48.288;8.726;2023-05-18T14:39:02;3.77;;;3.57;;
2225;SDS011;1119;48.288;8.726;2023-05-18T14:41:51;4.13;;;3.73;;
2225;SDS011;1119;48.288;8.726;2023-05-18T14:44:39;7.40;;;3.57;;
2225;SDS011;1119;48.288;8.726;2023-05-18T14:47:26;5.83;;;4.60;;
2225;SDS011;1119;48.288;8.726;2023-05-18T14:50:13;4.10;;;3.90;;
2225;SDS011;1119;48.288;8.726;2023-05-18T14:53:01;4.53;;;4.07;;
2225;SDS011;1119;48.288;8.726;2023-05-18T14:55:49;4.40;;;4.00;;
2225;SDS011;1119;48.288;8.726;2023-05-18T14:58:38;5.80;;;3.87;;
2225;SDS011;1119;48.288;8.726;2023-05-18T15:01:26;6.93;;;4.13;;
2225;SDS011;1119;48.288;8.726;2023-05-18T15:04:13;4.27;;;4.07;;
2225;SDS011;1119;48.288;8.726;2023-05-18T15:07:01;4.03;;;3.83;;
2225;SDS011;1119;48.288;8.726;2023-05-18T15:09:50;6.00;;;4.20;;
2225;SDS011;1119;48.288;8.726;2023-05-18T15:12:40;4.37;;;4.07;;
2225;SDS011;1119;48.288;8.726;2023-05-18T15:15:28;5.13;;;4.23;;
2225;SDS011;1119;48.288;8.726;2023-05-18T15:18:16;4.93;;;4.60;;
2225;SDS011;1119;48.288;8.726;2023-05-18T15:21:03;6.00;;;5.03;;
2225;SDS011;1119;48.288;8.726;2023-05-18T15:23:51;5.47;;;4.30;;
2225;SDS011;1119;48.288;8.726;2023-05-18T15:26:38;4.53;;;4.23;;
2225;SDS011;1119;48.288;8.726;2023-05-18T15:29:26;6.20;;;3.90;;
2225;SDS011;1119;48.288;8.726;2023-05-18T15:32:15;4.30;;;4.00;;
2225;SDS011;1119;48.288;8.726;2023-05-18T15:35:03;6.60;;;4.10;;
2225;SDS011;1119;48.288;8.726;2023-05-18T15:37:52;6.37;;;5.40;;
2225;SDS011;1119;48.288;8.726;2023-05-18T15:40:40;4.50;;;4.20;;
2225;SDS011;1119;48.288;8.726;2023-05-18T15:43:31;4.63;;;4.33;;
2225;SDS011;1119;48.288;8.726;2023-05-18T15:46:21;4.87;;;4.37;;
2225;SDS011;1119;48.288;8.726;2023-05-18T15:49:10;4.33;;;4.03;;
2225;SDS011;1119;48.288;8.726;2023-05-18T15:51:57;4.57;;;4.30;;
2225;SDS011;1119;48.288;8.726;2023-05-18T15:54:45;7.20;;;6.60;;
2225;SDS011;1119;48.288;8.726;2023-05-18T15:57:32;4.50;;;4.20;;
2225;SDS011;1119;48.288;8.726;2023-05-18T16:00:20;4.80;;;4.30;;
2225;SDS011;1119;48.288;8.726;2023-05-18T16:03:08;4.10;;;3.80;;
2225;SDS011;1119;48.288;8.726;2023-05-18T16:05:58;4.20;;;3.90;;
2225;SDS011;1119;48.288;8.726;2023-05-18T16:08:45;4.93;;;4.43;;
2225;SDS011;1119;48.288;8.726;2023-05-18T16:11:33;7.80;;;4.53;;
2225;SDS011;1119;48.288;8.726;2023-05-18T16:14:21;4.27;;;4.07;;
2225;SDS011;1119;48.288;8.726;2023-05-18T16:17:08;5.43;;;5.03;;
2225;SDS011;1119;48.288;8.726;2023-05-18T16:19:56;5.17;;;4.70;;
2225;SDS011;1119;48.288;8.726;2023-05-18T16:22:45;4.33;;;4.03;;
2225;SDS011;1119;48.288;8.726;2023-05-18T16:25:33;6.00;;;4.70;;
2225;SDS011;1119;48.288;8.726;2023-05-18T16:28:21;4.97;;;4.53;;
2225;SDS011;1119;48.288;8.726;2023-05-18T16:31:08;4.30;;;3.87;;
2225;SDS011;1119;48.288;8.726;2023-05-18T16:33:56;3.73;;;3.43;;
2225;SDS011;1119;48.288;8.726;2023-05-18T16:36:44;4.70;;;3.93;;
2225;SDS011;1119;48.288;8.726;2023-05-18T16:39:33;4.90;;;4.50;;
2225;SDS011;1119;48.288;8.726;2023-05-18T16:42:20;5.97;;;4.10;;
2225;SDS011;1119;48.288;8.726;2023-05-18T16:45:08;7.00;;;4.30;;
2225;SDS011;1119;48.288;8.726;2023-05-18T16:47:56;5.00;;;4.63;;
2225;SDS011;1119;48.288;8.726;2023-05-18T16:50:45;3.80;;;3.60;;
2225;SDS011;1119;48.288;8.726;2023-05-18T16:53:32;4.47;;;4.17;;
2225;SDS011;1119;48.288;8.726;2023-05-18T16:56:21;3.90;;;3.70;;
2225;SDS011;1119;48.288;8.726;2023-05-18T16:59:09;5.60;;;3.33;;
2225;SDS011;1119;48.288;8.726;2023-05-18T17:01:57;5.40;;;4.00;;
2225;SDS011;1119;48.288;8.726;2023-05-18T17:04:45;4.10;;;3.70;;
2225;SDS011;1119;48.288;8.726;2023-05-18T17:07:34;4.53;;;4.23;;
2225;SDS011;1119;48.288;8.726;2023-05-18T17:10:23;5.53;;;3.80;;
2225;SDS011;1119;48.288;8.726;2023-05-18T17:13:12;8.40;;;3.60;;
2225;SDS011;1119;48.288;8.726;2023-05-18T17:15:59;4.40;;;4.10;;
2225;SDS011;1119;48.288;8.726;2023-05-18T17:18:49;4.63;;;4.03;;
2225;SDS011;1119;48.288;8.726;2023-05-18T17:21:38;6.10;;;3.70;;
2225;SDS011;1119;48.288;8.726;2023-05-18T17:24:27;4.13;;;3.80;;
2225;SDS011;1119;48.288;8.726;2023-05-18T17:27:14;3.73;;;3.40;;
2225;SDS011;1119;48.288;8.726;2023-05-18T17:30:04;5.93;;;4.50;;
2225;SDS011;1119;48.288;8.726;2023-05-18T17:32:53;5.03;;;4.73;;
2225;SDS011;1119;48.288;8.726;2023-05-18T17:35:40;4.07;;;3.83;;
2225;SDS011;1119;48.288;8.726;2023-05-18T17:38:28;4.90;;;4.33;;
2225;SDS011;1119;48.288;8.726;2023-05-18T17:41:16;4.83;;;4.10;;
2225;SDS011;1119;48.288;8.726;2023-05-18T17:44:05;4.97;;;4.67;;
2225;SDS011;1119;48.288;8.726;2023-05-18T17:46:59;5.00;;;4.50;;